Terminal Aerodrome Forecast
Issued by NWS

Home | Current Version | Previous Version | Graphics & Text | Print | Product List | Glossary On
Versions: 1 2 3 4 5 6 7 8 9 10 11 12 13 14 15 16
000
FTUS43 KLSX 191000 AAB
TAFSUS
TAF AMD
KSUS 191002Z 1910/2006 00000KT 1SM BR SKC
      TEMPO 1910/1912 1/2SM FG
     FM191200 VRB03KT 3SM BR SKC
      TEMPO 1912/1913 6SM BR
     FM191300 19004KT P6SM SKC=

USA.gov is the U.S. government's official web portal to all federal, state and local government web resources and services.